createdAt,value
2023-11-28T00:02:22.520Z,2.40
2023-11-28T00:04:51.805Z,2.33
2023-11-28T00:07:20.861Z,2.80
2023-11-28T00:09:49.210Z,2.50
2023-11-28T00:12:17.448Z,2.30
2023-11-28T00:14:45.718Z,2.63
2023-11-28T00:17:15.551Z,2.57
2023-11-28T00:19:44.009Z,2.60
2023-11-28T00:22:12.512Z,2.47
2023-11-28T00:24:41.218Z,3.03
2023-11-28T00:27:09.743Z,2.30
2023-11-28T00:29:38.321Z,2.50
2023-11-28T00:32:07.355Z,1.87
2023-11-28T00:34:37.079Z,2.93
2023-11-28T00:37:05.606Z,2.57
2023-11-28T00:39:33.740Z,2.97
2023-11-28T00:42:04.837Z,3.77
2023-11-28T00:44:33.124Z,2.80
2023-11-28T00:47:01.370Z,2.30
2023-11-28T00:49:29.713Z,2.90
2023-11-28T00:51:59.377Z,2.90
2023-11-28T00:54:27.581Z,2.87
2023-11-28T00:56:55.926Z,2.67
2023-11-28T00:59:24.200Z,2.90
2023-11-28T01:01:52.641Z,2.97
2023-11-28T01:04:21.347Z,2.67
2023-11-28T01:06:49.621Z,2.90
2023-11-28T01:09:19.358Z,2.57
2023-11-28T01:11:47.874Z,2.90
2023-11-28T01:14:16.170Z,3.13
2023-11-28T01:16:47.139Z,2.43
2023-11-28T01:19:16.069Z,2.73
2023-11-28T01:21:44.336Z,3.13
2023-11-28T01:24:12.759Z,2.60
2023-11-28T01:26:42.413Z,2.97
2023-11-28T01:29:10.808Z,2.80
2023-11-28T01:31:39.210Z,3.17
2023-11-28T01:34:16.696Z,3.00
2023-11-28T01:36:46.200Z,2.83
2023-11-28T01:39:14.467Z,2.97
2023-11-28T01:41:48.879Z,2.80
2023-11-28T01:44:17.436Z,2.90
2023-11-28T01:46:46.433Z,3.23
2023-11-28T01:49:15.320Z,2.80
2023-11-28T01:51:44.071Z,3.37
2023-11-28T01:54:12.908Z,2.77
2023-11-28T01:56:41.294Z,2.70
2023-11-28T01:59:11.499Z,3.17
2023-11-28T02:01:40.023Z,2.90
2023-11-28T02:04:08.293Z,3.17
2023-11-28T02:06:37.492Z,3.00
2023-11-28T02:09:06.779Z,2.10
2023-11-28T02:11:35.358Z,3.27
2023-11-28T02:14:04.318Z,2.80
2023-11-28T02:16:34.535Z,2.87
2023-11-28T02:19:03.760Z,3.00
2023-11-28T02:21:32.068Z,2.70
2023-11-28T02:24:00.736Z,2.77
2023-11-28T02:26:30.944Z,2.70
2023-11-28T02:28:59.446Z,3.00
2023-11-28T02:31:27.982Z,2.90
2023-11-28T02:33:56.370Z,2.83
2023-11-28T02:36:24.696Z,3.00
2023-11-28T02:38:53.923Z,2.37
2023-11-28T02:41:22.631Z,2.97
2023-11-28T02:43:52.513Z,2.40
2023-11-28T02:46:20.933Z,2.33
2023-11-28T02:48:50.025Z,3.00
2023-11-28T02:51:21.252Z,2.47
2023-11-28T02:53:49.760Z,3.03
2023-11-28T02:56:18.440Z,2.97
2023-11-28T02:58:46.910Z,2.30
2023-11-28T03:01:16.596Z,2.70
2023-11-28T03:03:44.918Z,2.50
2023-11-28T03:06:13.226Z,3.30
2023-11-28T03:08:41.840Z,2.80
2023-11-28T03:11:11.218Z,2.60
2023-11-28T03:13:39.775Z,2.80
2023-11-28T03:16:08.987Z,3.17
2023-11-28T03:18:38.759Z,2.23
2023-11-28T03:21:07.811Z,2.40
2023-11-28T03:23:36.069Z,2.07
2023-11-28T03:26:04.419Z,2.50
2023-11-28T03:28:32.749Z,3.23
2023-11-28T03:31:01.013Z,2.83
2023-11-28T03:33:29.364Z,2.37
2023-11-28T03:35:58.966Z,2.83
2023-11-28T03:38:27.248Z,2.90
2023-11-28T03:40:55.862Z,2.90
2023-11-28T03:43:24.851Z,2.67
2023-11-28T03:45:53.125Z,2.70
2023-11-28T03:48:21.705Z,2.97
2023-11-28T03:50:49.957Z,2.90
2023-11-28T03:53:19.771Z,2.97
2023-11-28T03:55:48.114Z,2.80
2023-11-28T03:58:16.612Z,3.10
2023-11-28T04:00:44.951Z,2.80
2023-11-28T04:03:13.382Z,2.63
2023-11-28T04:05:41.874Z,3.10
2023-11-28T04:08:10.175Z,3.17
2023-11-28T04:10:41.631Z,3.10
2023-11-28T04:13:09.955Z,3.20
2023-11-28T04:15:39.885Z,3.80
2023-11-28T04:18:08.578Z,3.63
2023-11-28T04:20:38.032Z,3.50
2023-11-28T04:23:08.376Z,3.40
2023-11-28T04:25:36.964Z,3.57
2023-11-28T04:28:07.006Z,3.97
2023-11-28T04:30:35.287Z,3.17
2023-11-28T04:33:03.718Z,3.30
2023-11-28T04:35:32.098Z,3.27
2023-11-28T04:38:00.411Z,3.33
2023-11-28T04:40:28.635Z,3.23
2023-11-28T04:42:57.012Z,4.30
2023-11-28T04:45:26.747Z,3.43
2023-11-28T04:47:55.174Z,3.30
2023-11-28T04:50:23.404Z,3.20
2023-11-28T04:52:51.852Z,3.90
2023-11-28T04:55:20.489Z,3.70
2023-11-28T04:57:49.100Z,3.70
2023-11-28T05:00:17.926Z,3.33
2023-11-28T05:02:48.119Z,3.50
2023-11-28T05:05:16.800Z,3.33
2023-11-28T05:07:45.010Z,3.40
2023-11-28T05:10:13.438Z,3.43
2023-11-28T05:12:42.014Z,3.33
2023-11-28T05:15:11.057Z,2.77
2023-11-28T05:17:39.623Z,3.00
2023-11-28T05:20:11.505Z,3.63
2023-11-28T05:22:39.836Z,2.83
2023-11-28T05:25:08.551Z,3.43
2023-11-28T05:27:36.928Z,3.23
2023-11-28T05:30:05.571Z,3.40
2023-11-28T05:32:34.039Z,3.57
2023-11-28T05:35:02.376Z,3.43
2023-11-28T05:37:32.158Z,3.53
2023-11-28T05:40:00.444Z,3.80
2023-11-28T05:42:28.716Z,2.87
2023-11-28T05:44:56.986Z,4.13
2023-11-28T05:47:25.982Z,2.67
2023-11-28T05:49:54.361Z,3.50
2023-11-28T05:52:23.021Z,3.20
2023-11-28T05:54:52.730Z,3.23
2023-11-28T05:57:21.242Z,3.70
2023-11-28T05:59:51.738Z,3.00
2023-11-28T06:02:20.140Z,4.00
2023-11-28T06:04:49.042Z,3.13
2023-11-28T06:07:17.760Z,3.07
2023-11-28T06:09:46.052Z,3.73
2023-11-28T06:12:15.952Z,3.20
2023-11-28T06:14:44.379Z,3.67
2023-11-28T06:17:13.414Z,3.80
2023-11-28T06:19:41.855Z,3.03
2023-11-28T06:22:10.093Z,3.10
2023-11-28T06:24:38.956Z,2.70
2023-11-28T06:27:07.711Z,3.47
2023-11-28T06:29:37.548Z,2.93
2023-11-28T06:32:06.235Z,3.40
2023-11-28T06:34:34.795Z,3.00
2023-11-28T06:37:03.201Z,3.33
2023-11-28T06:39:34.978Z,3.00
2023-11-28T06:42:03.817Z,2.50
2023-11-28T06:44:34.412Z,3.00
2023-11-28T06:47:05.122Z,5.77
2023-11-28T06:49:34.235Z,3.00
2023-11-28T06:52:03.589Z,3.00
2023-11-28T06:54:32.143Z,3.90
2023-11-28T06:57:00.460Z,3.37
2023-11-28T06:59:28.873Z,3.07
2023-11-28T07:01:57.371Z,2.80
2023-11-28T07:04:27.396Z,3.23
2023-11-28T07:06:56.255Z,3.50
2023-11-28T07:09:24.490Z,2.83
2023-11-28T07:11:54.653Z,2.93
2023-11-28T07:14:23.454Z,3.27
2023-11-28T07:16:51.727Z,3.17
2023-11-28T07:19:20.130Z,3.20
2023-11-28T07:21:49.635Z,3.03
2023-11-28T07:24:17.803Z,2.50
2023-11-28T07:26:45.937Z,3.70
2023-11-28T07:29:14.535Z,3.00
2023-11-28T07:31:43.192Z,2.90
2023-11-28T07:34:11.442Z,3.13
2023-11-28T07:36:39.598Z,3.00
2023-11-28T07:39:10.925Z,3.37
2023-11-28T07:41:39.228Z,3.73
2023-11-28T07:44:07.571Z,4.47
2023-11-28T07:46:35.795Z,3.53
2023-11-28T07:49:04.039Z,3.03
2023-11-28T07:51:32.207Z,2.97
2023-11-28T07:54:01.545Z,3.93
2023-11-28T07:56:31.300Z,3.70
2023-11-28T07:58:59.475Z,3.53
2023-11-28T08:01:27.718Z,3.43
2023-11-28T08:03:56.088Z,3.33
2023-11-28T08:06:26.427Z,4.03
2023-11-28T08:08:54.604Z,3.30
2023-11-28T08:11:22.960Z,4.40
2023-11-28T08:13:52.902Z,2.90
2023-11-28T08:16:24.843Z,4.20
2023-11-28T08:18:53.286Z,3.50
2023-11-28T08:21:21.909Z,3.13
2023-11-28T08:23:50.209Z,3.20
2023-11-28T08:26:19.022Z,3.40
2023-11-28T08:28:47.222Z,3.03
2023-11-28T08:31:16.842Z,2.60
2023-11-28T08:33:45.387Z,3.13
2023-11-28T08:36:14.100Z,3.10
2023-11-28T08:38:42.296Z,2.50
2023-11-28T08:41:11.149Z,2.83
2023-11-28T08:43:39.930Z,2.87
2023-11-28T08:46:08.527Z,3.17
2023-11-28T08:48:38.186Z,3.87
2023-11-28T08:51:06.769Z,2.77
2023-11-28T08:53:35.077Z,3.33
2023-11-28T08:56:03.396Z,3.57
2023-11-28T08:58:31.662Z,2.77
2023-11-28T09:00:59.890Z,3.80
2023-11-28T09:03:28.394Z,2.73
2023-11-28T09:05:58.199Z,3.17
2023-11-28T09:08:26.471Z,3.27
2023-11-28T09:10:54.984Z,3.10
2023-11-28T09:13:23.779Z,2.73
2023-11-28T09:15:52.080Z,3.73
2023-11-28T09:18:20.610Z,3.80
2023-11-28T09:20:49.215Z,3.57
2023-11-28T09:23:19.526Z,4.30
2023-11-28T09:25:52.967Z,3.40
2023-11-28T09:28:29.675Z,4.53
2023-11-28T09:30:58.016Z,4.40
2023-11-28T09:33:26.465Z,3.80
2023-11-28T09:35:55.549Z,4.40
2023-11-28T09:38:25.469Z,4.47
2023-11-28T09:40:54.130Z,4.40
2023-11-28T09:43:26.737Z,3.40
2023-11-28T09:45:58.617Z,4.73
2023-11-28T09:48:28.397Z,3.27
2023-11-28T09:50:57.331Z,4.17
2023-11-28T09:53:30.259Z,3.50
2023-11-28T09:56:00.444Z,3.70
2023-11-28T09:58:29.893Z,3.30
2023-11-28T10:01:03.030Z,2.80
2023-11-28T10:03:31.561Z,3.60
2023-11-28T10:06:03.424Z,3.53
2023-11-28T10:08:36.904Z,3.10
2023-11-28T10:11:06.953Z,2.70
2023-11-28T10:13:36.143Z,2.93
2023-11-28T10:16:04.395Z,3.70
2023-11-28T10:18:33.435Z,3.50
2023-11-28T10:21:02.159Z,3.57
2023-11-28T10:23:30.518Z,3.23
2023-11-28T10:26:01.922Z,3.20
2023-11-28T10:28:35.693Z,2.80
2023-11-28T10:31:07.589Z,2.60
2023-11-28T10:33:36.598Z,2.73
2023-11-28T10:36:05.260Z,3.53
2023-11-28T10:38:36.270Z,2.57
2023-11-28T10:41:06.252Z,2.90
2023-11-28T10:43:34.603Z,3.00
2023-11-28T10:46:06.129Z,2.70
2023-11-28T10:48:34.804Z,2.33
2023-11-28T10:51:04.018Z,2.40
2023-11-28T10:53:35.575Z,2.83
2023-11-28T10:56:07.637Z,2.40
2023-11-28T10:58:40.384Z,2.40
2023-11-28T11:01:09.727Z,2.30
2023-11-28T11:03:39.906Z,2.83
2023-11-28T11:06:12.608Z,2.80
2023-11-28T11:08:42.299Z,3.10
2023-11-28T11:11:13.568Z,2.77
2023-11-28T11:13:54.220Z,2.83
2023-11-28T11:16:30.523Z,3.17
2023-11-28T11:19:00.577Z,3.10
2023-11-28T11:21:33.330Z,2.30
2023-11-28T11:24:02.043Z,2.80
2023-11-28T11:26:36.241Z,2.90
2023-11-28T11:29:05.496Z,2.90
2023-11-28T11:31:36.263Z,2.90
2023-11-28T11:34:37.657Z,2.60
2023-11-28T11:37:13.438Z,2.50
2023-11-28T11:39:43.145Z,2.97
2023-11-28T11:42:14.382Z,2.87
2023-11-28T11:44:44.180Z,2.40
2023-11-28T11:47:17.833Z,3.13
2023-11-28T11:49:47.437Z,3.10
2023-11-28T11:52:16.716Z,2.80
2023-11-28T11:54:47.406Z,3.10
2023-11-28T11:57:19.271Z,2.63
2023-11-28T11:59:48.925Z,2.43
2023-11-28T12:02:18.441Z,2.07
2023-11-28T12:04:47.103Z,2.40
2023-11-28T12:07:16.574Z,2.00
2023-11-28T12:09:45.504Z,2.30
2023-11-28T12:12:15.170Z,2.83
2023-11-28T12:14:45.119Z,2.77
2023-11-28T12:17:13.580Z,2.27
2023-11-28T12:19:41.892Z,2.17
2023-11-28T12:22:11.806Z,3.07
2023-11-28T12:24:40.105Z,5.70
2023-11-28T12:27:08.839Z,2.70
2023-11-28T12:29:38.702Z,2.87
2023-11-28T12:32:09.181Z,2.00
2023-11-28T12:34:40.697Z,3.30
2023-11-28T12:37:10.559Z,2.27
2023-11-28T12:39:41.795Z,2.40
2023-11-28T12:42:10.386Z,2.43
2023-11-28T12:44:39.368Z,3.13
2023-11-28T12:47:08.989Z,2.80
2023-11-28T12:49:38.749Z,2.67
2023-11-28T12:52:07.218Z,2.80
2023-11-28T12:54:36.605Z,2.27
2023-11-28T12:57:05.111Z,2.47
2023-11-28T12:59:33.534Z,2.67
2023-11-28T13:02:02.644Z,2.40
2023-11-28T13:04:32.273Z,2.77
2023-11-28T13:07:10.412Z,2.40
2023-11-28T13:09:46.596Z,2.67
2023-11-28T13:12:14.896Z,2.57
2023-11-28T13:14:43.211Z,2.63
2023-11-28T13:17:11.701Z,2.70
2023-11-28T13:19:41.679Z,2.17
2023-11-28T13:22:11.673Z,2.40
2023-11-28T13:24:40.184Z,2.20
2023-11-28T13:27:08.587Z,2.13
2023-11-28T13:29:39.475Z,2.13
2023-11-28T13:32:08.531Z,2.63
2023-11-28T13:34:42.462Z,2.97
2023-11-28T13:37:12.328Z,2.27
2023-11-28T13:39:44.535Z,1.93
2023-11-28T13:42:12.990Z,2.30
2023-11-28T13:44:41.361Z,1.80
2023-11-28T13:47:09.812Z,2.60
2023-11-28T13:49:38.562Z,2.83
2023-11-28T13:52:07.077Z,1.83
2023-11-28T13:54:38.711Z,2.60
2023-11-28T13:57:07.050Z,2.30
2023-11-28T13:59:35.281Z,1.93
2023-11-28T14:02:05.914Z,2.50
2023-11-28T14:04:34.232Z,3.27
2023-11-28T14:07:02.452Z,2.80
2023-11-28T14:09:30.672Z,2.20
2023-11-28T14:12:00.562Z,2.17
2023-11-28T14:14:34.634Z,2.30
2023-11-28T14:17:09.593Z,2.80
2023-11-28T14:19:43.597Z,2.83
2023-11-28T14:22:13.929Z,3.00
2023-11-28T14:24:42.582Z,2.87
2023-11-28T14:27:12.289Z,2.67
2023-11-28T14:29:41.325Z,2.60
2023-11-28T14:32:09.837Z,2.70
2023-11-28T14:34:38.276Z,3.00
2023-11-28T14:37:06.604Z,3.43
2023-11-28T14:39:34.864Z,2.93
2023-11-28T14:42:03.174Z,1.70
2023-11-28T14:44:32.813Z,2.77
2023-11-28T14:47:01.203Z,3.50
2023-11-28T14:49:29.406Z,3.00
2023-11-28T14:51:57.649Z,2.30
2023-11-28T14:54:25.989Z,3.33
2023-11-28T14:56:54.710Z,3.07
2023-11-28T14:59:24.298Z,3.33
2023-11-28T15:01:54.197Z,3.80
2023-11-28T15:04:23.411Z,2.93
2023-11-28T15:06:53.015Z,2.73
2023-11-28T15:09:21.297Z,3.40
2023-11-28T15:11:49.948Z,3.17
2023-11-28T15:14:18.989Z,2.97
2023-11-28T15:16:47.476Z,3.13
2023-11-28T15:19:18.516Z,2.87
2023-11-28T15:21:46.962Z,3.43
2023-11-28T15:24:15.353Z,2.83
2023-11-28T15:26:43.766Z,2.90
2023-11-28T15:29:13.182Z,2.37
2023-11-28T15:31:41.616Z,3.03
2023-11-28T15:34:10.136Z,3.17
2023-11-28T15:36:39.766Z,2.80
2023-11-28T15:39:15.356Z,3.60
2023-11-28T15:41:44.009Z,3.43
2023-11-28T15:44:12.262Z,2.53
2023-11-28T15:46:40.634Z,3.90
2023-11-28T15:49:09.248Z,2.60
2023-11-28T15:51:40.444Z,3.07
2023-11-28T15:54:10.696Z,3.90
2023-11-28T15:56:39.668Z,3.90
2023-11-28T15:59:07.964Z,3.20
2023-11-28T16:01:36.298Z,3.60
2023-11-28T16:04:04.716Z,5.13
2023-11-28T16:06:32.884Z,4.87
2023-11-28T16:09:01.057Z,4.07
2023-11-28T16:11:30.609Z,4.10
2023-11-28T16:13:58.853Z,4.37
2023-11-28T16:16:27.507Z,4.20
2023-11-28T16:18:56.460Z,4.00
2023-11-28T16:21:25.431Z,4.17
2023-11-28T16:23:53.729Z,4.07
2023-11-28T16:26:22.680Z,4.20
2023-11-28T16:28:52.434Z,4.07
2023-11-28T16:31:21.274Z,5.63
2023-11-28T16:33:50.495Z,4.27
2023-11-28T16:36:18.754Z,3.97
2023-11-28T16:38:48.446Z,3.90
2023-11-28T16:41:18.359Z,3.57
2023-11-28T16:43:47.205Z,4.03
2023-11-28T16:46:16.961Z,3.50
2023-11-28T16:48:46.072Z,3.57
2023-11-28T16:51:16.584Z,4.30
2023-11-28T16:53:45.620Z,3.60
2023-11-28T16:56:14.088Z,3.70
2023-11-28T16:58:42.935Z,3.73
2023-11-28T17:01:13.750Z,3.90
2023-11-28T17:03:43.796Z,3.70
2023-11-28T17:06:13.331Z,3.50
2023-11-28T17:08:44.060Z,3.00
2023-11-28T17:11:12.666Z,3.40
2023-11-28T17:13:41.248Z,3.57
2023-11-28T17:16:10.200Z,3.90
2023-11-28T17:18:38.521Z,3.50
2023-11-28T17:21:08.531Z,3.30
2023-11-28T17:23:37.132Z,3.60
2023-11-28T17:26:07.076Z,3.97
2023-11-28T17:28:37.900Z,3.30
2023-11-28T17:31:06.972Z,4.53
2023-11-28T17:33:35.210Z,3.93
2023-11-28T17:36:03.989Z,4.43
2023-11-28T17:38:33.607Z,3.83
2023-11-28T17:41:02.270Z,3.53
2023-11-28T17:43:30.529Z,3.60
2023-11-28T17:46:01.204Z,3.73
2023-11-28T17:48:29.494Z,4.97
2023-11-28T17:50:57.662Z,3.60
2023-11-28T17:53:26.101Z,3.57
2023-11-28T17:55:55.702Z,3.77
2023-11-28T17:58:26.043Z,3.80
2023-11-28T18:00:54.575Z,3.47
2023-11-28T18:03:22.990Z,4.67
2023-11-28T18:05:51.177Z,4.30
2023-11-28T18:08:19.431Z,4.53
2023-11-28T18:10:47.763Z,4.40
2023-11-28T18:13:18.046Z,3.67
2023-11-28T18:15:52.271Z,4.90
2023-11-28T18:18:21.403Z,4.50
2023-11-28T18:20:49.903Z,4.17
2023-11-28T18:23:20.631Z,4.27
2023-11-28T18:25:49.205Z,4.53
2023-11-28T18:28:19.106Z,3.60
2023-11-28T18:30:47.581Z,4.23
2023-11-28T18:33:15.757Z,4.20
2023-11-28T18:35:44.042Z,4.30
2023-11-28T18:38:12.281Z,5.57
2023-11-28T18:40:42.282Z,5.00
2023-11-28T18:43:10.580Z,4.47
2023-11-28T18:45:40.369Z,5.23
2023-11-28T18:48:08.722Z,5.97
2023-11-28T18:50:37.424Z,4.93
2023-11-28T18:53:05.703Z,4.93
2023-11-28T18:55:35.629Z,5.07
2023-11-28T18:58:04.074Z,4.60
2023-11-28T19:00:32.191Z,5.50
2023-11-28T19:03:02.091Z,5.57
2023-11-28T19:05:34.065Z,4.97
2023-11-28T19:08:03.273Z,6.60
2023-11-28T19:10:33.062Z,5.03
2023-11-28T19:13:01.266Z,6.63
2023-11-28T19:15:29.414Z,4.67
2023-11-28T19:17:57.764Z,4.63
2023-11-28T19:20:32.385Z,5.30
2023-11-28T19:23:01.828Z,4.67
2023-11-28T19:25:30.013Z,5.40
2023-11-28T19:28:00.544Z,5.90
2023-11-28T19:30:28.654Z,5.90
2023-11-28T19:32:56.965Z,5.67
2023-11-28T19:35:26.792Z,4.70
2023-11-28T19:37:55.050Z,5.03
2023-11-28T19:40:23.368Z,4.67
2023-11-28T19:42:51.549Z,6.43
2023-11-28T19:45:20.097Z,5.63
2023-11-28T19:47:50.329Z,5.10
2023-11-28T19:50:18.717Z,5.17
2023-11-28T19:52:49.041Z,5.97
2023-11-28T19:55:17.460Z,4.87
2023-11-28T19:57:45.820Z,5.27
2023-11-28T20:00:15.216Z,5.17
2023-11-28T20:02:43.839Z,5.77
2023-11-28T20:05:12.361Z,4.33
2023-11-28T20:07:40.829Z,5.30
2023-11-28T20:10:12.387Z,5.23
2023-11-28T20:12:41.000Z,5.10
2023-11-28T20:15:10.193Z,4.77
2023-11-28T20:17:38.738Z,4.83
2023-11-28T20:20:08.531Z,5.13
2023-11-28T20:22:36.949Z,4.97
2023-11-28T20:25:05.797Z,4.83
2023-11-28T20:27:36.524Z,5.13
2023-11-28T20:30:05.373Z,4.40
2023-11-28T20:32:33.711Z,4.50
2023-11-28T20:35:02.152Z,4.73
2023-11-28T20:37:35.590Z,4.50
2023-11-28T20:40:05.941Z,4.80
2023-11-28T20:42:35.598Z,4.70
2023-11-28T20:45:03.870Z,4.77
2023-11-28T20:47:32.115Z,4.17
2023-11-28T20:50:00.558Z,4.97
2023-11-28T20:52:28.786Z,4.90
2023-11-28T20:54:56.932Z,5.40
2023-11-28T20:57:25.149Z,6.53
2023-11-28T20:59:54.637Z,5.33
2023-11-28T21:02:24.803Z,5.20
2023-11-28T21:04:53.274Z,6.07
2023-11-28T21:07:24.193Z,5.83
2023-11-28T21:09:55.408Z,6.20
2023-11-28T21:12:24.767Z,6.83
2023-11-28T21:14:54.847Z,8.20
2023-11-28T21:17:23.144Z,9.07
2023-11-28T21:19:53.569Z,8.13
2023-11-28T21:22:21.792Z,7.90
2023-11-28T21:24:49.917Z,9.47
2023-11-28T21:27:18.146Z,8.37
2023-11-28T21:29:48.020Z,8.97
2023-11-28T21:32:17.592Z,7.97
2023-11-28T21:34:45.900Z,6.03
2023-11-28T21:37:14.036Z,6.97
2023-11-28T21:39:42.888Z,7.30
2023-11-28T21:42:11.164Z,4.60
2023-11-28T21:44:40.904Z,5.30
2023-11-28T21:47:10.838Z,4.90
2023-11-28T21:49:43.127Z,4.47
2023-11-28T21:52:11.660Z,5.07
2023-11-28T21:54:42.437Z,4.60
2023-11-28T21:57:10.860Z,4.87
2023-11-28T21:59:39.156Z,3.77
2023-11-28T22:02:07.529Z,4.77
2023-11-28T22:04:35.858Z,4.17
2023-11-28T22:07:05.936Z,4.67
2023-11-28T22:09:34.341Z,4.47
2023-11-28T22:12:02.643Z,4.87
2023-11-28T22:14:31.112Z,4.80
2023-11-28T22:16:59.417Z,4.40
2023-11-28T22:19:27.766Z,4.97
2023-11-28T22:21:56.461Z,4.47
2023-11-28T22:24:26.517Z,4.97
2023-11-28T22:26:54.787Z,4.20
2023-11-28T22:29:23.703Z,4.10
2023-11-28T22:31:52.777Z,5.50
2023-11-28T22:34:21.621Z,4.10
2023-11-28T22:36:49.867Z,4.77
2023-11-28T22:39:18.231Z,5.20
2023-11-28T22:41:49.128Z,5.23
2023-11-28T22:44:17.471Z,4.40
2023-11-28T22:46:45.776Z,5.97
2023-11-28T22:49:14.089Z,5.30
2023-11-28T22:51:42.370Z,5.60
2023-11-28T22:54:10.572Z,6.13
2023-11-28T22:56:49.174Z,5.63
2023-11-28T22:59:20.396Z,4.80
2023-11-28T23:01:48.981Z,4.90
2023-11-28T23:04:17.502Z,5.97
2023-11-28T23:06:45.955Z,5.93
2023-11-28T23:09:14.822Z,6.43
2023-11-28T23:11:43.310Z,5.03
2023-11-28T23:14:11.520Z,5.53
2023-11-28T23:16:41.117Z,7.07
2023-11-28T23:19:09.511Z,5.03
2023-11-28T23:21:37.705Z,5.47
2023-11-28T23:24:13.158Z,5.33
2023-11-28T23:26:44.395Z,4.87
2023-11-28T23:29:12.890Z,5.00
2023-11-28T23:31:42.581Z,6.10
2023-11-28T23:34:10.822Z,6.40
2023-11-28T23:36:39.084Z,5.87
2023-11-28T23:39:07.363Z,6.67
2023-11-28T23:41:35.660Z,5.17
2023-11-28T23:44:03.989Z,6.27
2023-11-28T23:46:32.205Z,7.10
2023-11-28T23:49:05.131Z,5.93
2023-11-28T23:51:34.098Z,5.67
2023-11-28T23:54:02.319Z,5.60
2023-11-28T23:56:30.668Z,6.00
2023-11-28T23:58:58.858Z,5.53
